sensor_id;sensor_type;location;lat;lon;timestamp;P1;durP1;ratioP1;P2;durP2;ratioP2
12222;SDS011;6174;49.058;8.524;2023-04-24T05:01:57;1.73;;;1.57;;
12222;SDS011;6174;49.058;8.524;2023-04-24T05:04:24;2.47;;;1.70;;
12222;SDS011;6174;49.058;8.524;2023-04-24T05:06:51;1.63;;;1.53;;
12222;SDS011;6174;49.058;8.524;2023-04-24T05:09:18;2.50;;;2.30;;
12222;SDS011;6174;49.058;8.524;2023-04-24T05:11:45;1.90;;;1.80;;
12222;SDS011;6174;49.058;8.524;2023-04-24T05:14:11;2.03;;;1.93;;
12222;SDS011;6174;49.058;8.524;2023-04-24T05:16:38;2.23;;;2.03;;
12222;SDS011;6174;49.058;8.524;2023-04-24T05:19:06;1.87;;;1.77;;
12222;SDS011;6174;49.058;8.524;2023-04-24T05:21:33;2.13;;;1.93;;
12222;SDS011;6174;49.058;8.524;2023-04-24T05:24:00;1.80;;;1.70;;
12222;SDS011;6174;49.058;8.524;2023-04-24T05:26:27;2.13;;;1.90;;
12222;SDS011;6174;49.058;8.524;2023-04-24T05:28:53;2.57;;;2.20;;
12222;SDS011;6174;49.058;8.524;2023-04-24T05:31:20;1.93;;;1.70;;
12222;SDS011;6174;49.058;8.524;2023-04-24T05:33:47;2.13;;;1.93;;
12222;SDS011;6174;49.058;8.524;2023-04-24T05:36:15;2.40;;;1.90;;
12222;SDS011;6174;49.058;8.524;2023-04-24T05:38:42;2.43;;;2.20;;
12222;SDS011;6174;49.058;8.524;2023-04-24T05:41:08;2.07;;;1.93;;
12222;SDS011;6174;49.058;8.524;2023-04-24T05:43:35;2.10;;;1.90;;
12222;SDS011;6174;49.058;8.524;2023-04-24T05:46:02;4.30;;;1.93;;
12222;SDS011;6174;49.058;8.524;2023-04-24T05:48:28;1.73;;;1.63;;
12222;SDS011;6174;49.058;8.524;2023-04-24T05:50:56;1.83;;;1.70;;
12222;SDS011;6174;49.058;8.524;2023-04-24T05:53:24;2.20;;;1.70;;
12222;SDS011;6174;49.058;8.524;2023-04-24T05:55:50;2.17;;;1.80;;
12222;SDS011;6174;49.058;8.524;2023-04-24T05:58:17;3.70;;;1.80;;
12222;SDS011;6174;49.058;8.524;2023-04-24T06:00:44;1.70;;;1.60;;
12222;SDS011;6174;49.058;8.524;2023-04-24T06:03:11;2.13;;;1.70;;
12222;SDS011;6174;49.058;8.524;2023-04-24T06:05:38;2.13;;;1.93;;
12222;SDS011;6174;49.058;8.524;2023-04-24T06:08:05;1.80;;;1.70;;
12222;SDS011;6174;49.058;8.524;2023-04-24T06:10:33;3.50;;;1.80;;
12222;SDS011;6174;49.058;8.524;2023-04-24T06:13:00;2.17;;;1.70;;
12222;SDS011;6174;49.058;8.524;2023-04-24T06:15:27;1.77;;;1.67;;
12222;SDS011;6174;49.058;8.524;2023-04-24T06:17:55;1.70;;;1.60;;
12222;SDS011;6174;49.058;8.524;2023-04-24T06:20:22;3.57;;;1.77;;
12222;SDS011;6174;49.058;8.524;2023-04-24T06:22:49;1.90;;;1.80;;
12222;SDS011;6174;49.058;8.524;2023-04-24T06:25:15;1.90;;;1.80;;
12222;SDS011;6174;49.058;8.524;2023-04-24T06:27:43;3.47;;;1.97;;
12222;SDS011;6174;49.058;8.524;2023-04-24T06:30:10;2.43;;;1.70;;
12222;SDS011;6174;49.058;8.524;2023-04-24T06:32:37;2.23;;;1.87;;
12222;SDS011;6174;49.058;8.524;2023-04-24T06:35:05;2.67;;;1.67;;
12222;SDS011;6174;49.058;8.524;2023-04-24T06:37:33;1.90;;;1.80;;
12222;SDS011;6174;49.058;8.524;2023-04-24T06:39:59;3.20;;;1.73;;
12222;SDS011;6174;49.058;8.524;2023-04-24T06:42:26;2.27;;;2.00;;
12222;SDS011;6174;49.058;8.524;2023-04-24T06:44:54;2.17;;;1.97;;
12222;SDS011;6174;49.058;8.524;2023-04-24T06:47:21;2.10;;;1.90;;
12222;SDS011;6174;49.058;8.524;2023-04-24T06:49:48;1.90;;;1.80;;
12222;SDS011;6174;49.058;8.524;2023-04-24T06:52:15;2.07;;;1.77;;
12222;SDS011;6174;49.058;8.524;2023-04-24T06:54:42;2.57;;;1.60;;
12222;SDS011;6174;49.058;8.524;2023-04-24T06:57:09;2.03;;;1.70;;
12222;SDS011;6174;49.058;8.524;2023-04-24T06:59:36;1.90;;;1.70;;
12222;SDS011;6174;49.058;8.524;2023-04-24T07:02:04;1.90;;;1.80;;
12222;SDS011;6174;49.058;8.524;2023-04-24T07:04:31;2.20;;;2.00;;
12222;SDS011;6174;49.058;8.524;2023-04-24T07:06:57;2.00;;;1.90;;
12222;SDS011;6174;49.058;8.524;2023-04-24T07:09:25;4.80;;;1.90;;
12222;SDS011;6174;49.058;8.524;2023-04-24T07:11:52;3.10;;;1.80;;
12222;SDS011;6174;49.058;8.524;2023-04-24T07:14:21;3.17;;;1.70;;
12222;SDS011;6174;49.058;8.524;2023-04-24T07:16:48;1.80;;;1.67;;
12222;SDS011;6174;49.058;8.524;2023-04-24T07:19:16;1.70;;;1.60;;
12222;SDS011;6174;49.058;8.524;2023-04-24T07:21:43;2.17;;;1.67;;
12222;SDS011;6174;49.058;8.524;2023-04-24T07:24:10;2.93;;;1.90;;
12222;SDS011;6174;49.058;8.524;2023-04-24T07:26:38;2.03;;;1.90;;
12222;SDS011;6174;49.058;8.524;2023-04-24T07:29:05;3.00;;;1.70;;
12222;SDS011;6174;49.058;8.524;2023-04-24T07:31:32;2.83;;;1.90;;
12222;SDS011;6174;49.058;8.524;2023-04-24T07:33:58;2.17;;;1.97;;
12222;SDS011;6174;49.058;8.524;2023-04-24T07:36:26;1.60;;;1.50;;
12222;SDS011;6174;49.058;8.524;2023-04-24T07:38:53;1.70;;;1.60;;
12222;SDS011;6174;49.058;8.524;2023-04-24T07:41:21;2.03;;;1.90;;
12222;SDS011;6174;49.058;8.524;2023-04-24T07:43:49;3.10;;;1.67;;
12222;SDS011;6174;49.058;8.524;2023-04-24T07:46:16;1.77;;;1.67;;
12222;SDS011;6174;49.058;8.524;2023-04-24T07:48:42;3.87;;;1.70;;
12222;SDS011;6174;49.058;8.524;2023-04-24T07:51:09;2.80;;;1.93;;
12222;SDS011;6174;49.058;8.524;2023-04-24T07:53:39;1.97;;;1.80;;
12222;SDS011;6174;49.058;8.524;2023-04-24T07:56:06;1.60;;;1.50;;
12222;SDS011;6174;49.058;8.524;2023-04-24T07:58:33;2.10;;;1.67;;
12222;SDS011;6174;49.058;8.524;2023-04-24T08:00:59;1.50;;;1.30;;
12222;SDS011;6174;49.058;8.524;2023-04-24T08:03:26;3.57;;;1.30;;
12222;SDS011;6174;49.058;8.524;2023-04-24T08:05:53;2.00;;;1.00;;
12222;SDS011;6174;49.058;8.524;2023-04-24T08:08:20;1.10;;;1.00;;
12222;SDS011;6174;49.058;8.524;2023-04-24T08:10:49;1.20;;;1.10;;
12222;SDS011;6174;49.058;8.524;2023-04-24T08:13:16;1.80;;;1.20;;
12222;SDS011;6174;49.058;8.524;2023-04-24T08:15:43;1.77;;;1.20;;
12222;SDS011;6174;49.058;8.524;2023-04-24T08:18:10;1.60;;;1.47;;
12222;SDS011;6174;49.058;8.524;2023-04-24T08:20:38;1.23;;;1.20;;
12222;SDS011;6174;49.058;8.524;2023-04-24T08:23:05;1.20;;;1.10;;
12222;SDS011;6174;49.058;8.524;2023-04-24T08:25:32;1.77;;;1.20;;
12222;SDS011;6174;49.058;8.524;2023-04-24T08:28:01;1.20;;;1.10;;
12222;SDS011;6174;49.058;8.524;2023-04-24T08:30:29;1.40;;;1.30;;
12222;SDS011;6174;49.058;8.524;2023-04-24T08:32:55;1.60;;;1.50;;
12222;SDS011;6174;49.058;8.524;2023-04-24T08:35:22;2.07;;;1.60;;
12222;SDS011;6174;49.058;8.524;2023-04-24T08:37:49;2.17;;;1.30;;
12222;SDS011;6174;49.058;8.524;2023-04-24T08:40:16;1.63;;;1.20;;
12222;SDS011;6174;49.058;8.524;2023-04-24T08:42:43;1.20;;;1.13;;
12222;SDS011;6174;49.058;8.524;2023-04-24T08:45:12;1.30;;;1.20;;
12222;SDS011;6174;49.058;8.524;2023-04-24T08:47:39;1.30;;;1.20;;
12222;SDS011;6174;49.058;8.524;2023-04-24T08:50:07;1.43;;;1.23;;
12222;SDS011;6174;49.058;8.524;2023-04-24T08:52:34;1.70;;;1.60;;
12222;SDS011;6174;49.058;8.524;2023-04-24T08:55:02;1.60;;;1.07;;
12222;SDS011;6174;49.058;8.524;2023-04-24T08:57:29;2.10;;;1.20;;
12222;SDS011;6174;49.058;8.524;2023-04-24T08:59:57;1.30;;;1.20;;
12222;SDS011;6174;49.058;8.524;2023-04-24T09:02:25;2.17;;;1.50;;
12222;SDS011;6174;49.058;8.524;2023-04-24T09:04:52;1.60;;;1.20;;
12222;SDS011;6174;49.058;8.524;2023-04-24T09:07:19;1.83;;;1.50;;
12222;SDS011;6174;49.058;8.524;2023-04-24T09:09:48;1.60;;;1.50;;
12222;SDS011;6174;49.058;8.524;2023-04-24T09:12:17;1.80;;;1.30;;
12222;SDS011;6174;49.058;8.524;2023-04-24T09:14:44;1.63;;;1.50;;
12222;SDS011;6174;49.058;8.524;2023-04-24T09:17:11;2.73;;;1.83;;
12222;SDS011;6174;49.058;8.524;2023-04-24T09:19:40;3.90;;;1.50;;
12222;SDS011;6174;49.058;8.524;2023-04-24T09:22:08;1.70;;;1.60;;
12222;SDS011;6174;49.058;8.524;2023-04-24T09:24:36;2.47;;;2.00;;
12222;SDS011;6174;49.058;8.524;2023-04-24T09:27:02;1.80;;;1.70;;
12222;SDS011;6174;49.058;8.524;2023-04-24T09:29:30;1.83;;;1.67;;
12222;SDS011;6174;49.058;8.524;2023-04-24T09:31:57;2.00;;;1.80;;
12222;SDS011;6174;49.058;8.524;2023-04-24T09:34:25;1.70;;;1.60;;
12222;SDS011;6174;49.058;8.524;2023-04-24T09:36:54;3.50;;;1.87;;
12222;SDS011;6174;49.058;8.524;2023-04-24T09:39:21;2.57;;;2.10;;
12222;SDS011;6174;49.058;8.524;2023-04-24T09:41:48;3.20;;;2.40;;
12222;SDS011;6174;49.058;8.524;2023-04-24T09:44:17;3.17;;;2.20;;
12222;SDS011;6174;49.058;8.524;2023-04-24T09:46:50;2.57;;;2.37;;
12222;SDS011;6174;49.058;8.524;2023-04-24T09:49:21;2.67;;;2.40;;
12222;SDS011;6174;49.058;8.524;2023-04-24T09:51:49;2.83;;;2.50;;
12222;SDS011;6174;49.058;8.524;2023-04-24T09:54:18;2.60;;;2.40;;
12222;SDS011;6174;49.058;8.524;2023-04-24T09:56:46;2.50;;;2.30;;
12222;SDS011;6174;49.058;8.524;2023-04-24T09:59:15;2.60;;;2.40;;
12222;SDS011;6174;49.058;8.524;2023-04-24T10:01:42;3.87;;;2.60;;
12222;SDS011;6174;49.058;8.524;2023-04-24T10:04:16;2.47;;;2.27;;
12222;SDS011;6174;49.058;8.524;2023-04-24T10:06:44;2.93;;;2.60;;
12222;SDS011;6174;49.058;8.524;2023-04-24T10:09:12;3.20;;;2.77;;
12222;SDS011;6174;49.058;8.524;2023-04-24T10:11:42;2.50;;;2.30;;
12222;SDS011;6174;49.058;8.524;2023-04-24T10:14:10;2.53;;;2.13;;
12222;SDS011;6174;49.058;8.524;2023-04-24T10:16:39;2.30;;;2.10;;
12222;SDS011;6174;49.058;8.524;2023-04-24T10:19:06;2.93;;;2.03;;
12222;SDS011;6174;49.058;8.524;2023-04-24T10:21:33;2.20;;;2.00;;
12222;SDS011;6174;49.058;8.524;2023-04-24T10:24:01;2.60;;;1.90;;
12222;SDS011;6174;49.058;8.524;2023-04-24T10:26:29;2.13;;;1.97;;
12222;SDS011;6174;49.058;8.524;2023-04-24T10:28:58;2.80;;;1.60;;
12222;SDS011;6174;49.058;8.524;2023-04-24T10:31:25;3.33;;;1.67;;
12222;SDS011;6174;49.058;8.524;2023-04-24T10:33:53;2.90;;;2.40;;
12222;SDS011;6174;49.058;8.524;2023-04-24T10:36:21;1.83;;;1.67;;
12222;SDS011;6174;49.058;8.524;2023-04-24T10:38:51;2.83;;;1.80;;
12222;SDS011;6174;49.058;8.524;2023-04-24T10:41:20;2.30;;;2.10;;
12222;SDS011;6174;49.058;8.524;2023-04-24T10:43:48;2.67;;;2.10;;
12222;SDS011;6174;49.058;8.524;2023-04-24T10:46:31;2.23;;;2.03;;
12222;SDS011;6174;49.058;8.524;2023-04-24T10:48:57;2.67;;;2.17;;
12222;SDS011;6174;49.058;8.524;2023-04-24T10:51:26;2.43;;;2.00;;
12222;SDS011;6174;49.058;8.524;2023-04-24T10:54:21;3.43;;;2.27;;
12222;SDS011;6174;49.058;8.524;2023-04-24T10:56:52;2.10;;;2.00;;
12222;SDS011;6174;49.058;8.524;2023-04-24T10:59:25;2.37;;;2.10;;
12222;SDS011;6174;49.058;8.524;2023-04-24T11:01:54;2.60;;;2.40;;
12222;SDS011;6174;49.058;8.524;2023-04-24T11:04:31;2.30;;;2.10;;
12222;SDS011;6174;49.058;8.524;2023-04-24T11:07:00;2.17;;;2.00;;
12222;SDS011;6174;49.058;8.524;2023-04-24T11:09:28;2.37;;;2.07;;
12222;SDS011;6174;49.058;8.524;2023-04-24T11:12:03;3.97;;;2.50;;
12222;SDS011;6174;49.058;8.524;2023-04-24T11:17:28;4.23;;;2.70;;
12222;SDS011;6174;49.058;8.524;2023-04-24T11:20:00;3.93;;;2.40;;
12222;SDS011;6174;49.058;8.524;2023-04-24T11:22:28;2.50;;;2.30;;
12222;SDS011;6174;49.058;8.524;2023-04-24T11:24:59;2.53;;;2.33;;
12222;SDS011;6174;49.058;8.524;2023-04-24T11:27:27;3.70;;;2.67;;
12222;SDS011;6174;49.058;8.524;2023-04-24T11:29:59;2.77;;;2.57;;
12222;SDS011;6174;49.058;8.524;2023-04-24T11:32:29;2.90;;;2.50;;
12222;SDS011;6174;49.058;8.524;2023-04-24T11:35:00;3.70;;;2.80;;
12222;SDS011;6174;49.058;8.524;2023-04-24T11:37:29;3.43;;;3.10;;
12222;SDS011;6174;49.058;8.524;2023-04-24T11:40:02;3.77;;;2.80;;
12222;SDS011;6174;49.058;8.524;2023-04-24T11:42:33;3.57;;;2.70;;
12222;SDS011;6174;49.058;8.524;2023-04-24T11:45:00;2.60;;;2.50;;
12222;SDS011;6174;49.058;8.524;2023-04-24T11:47:30;2.60;;;2.40;;
12222;SDS011;6174;49.058;8.524;2023-04-24T11:49:59;3.20;;;3.00;;
12222;SDS011;6174;49.058;8.524;2023-04-24T11:52:26;4.53;;;2.77;;
12222;SDS011;6174;49.058;8.524;2023-04-24T11:54:53;2.50;;;2.30;;
12222;SDS011;6174;49.058;8.524;2023-04-24T11:57:20;3.20;;;2.90;;
12222;SDS011;6174;49.058;8.524;2023-04-24T11:59:48;3.70;;;2.77;;
12222;SDS011;6174;49.058;8.524;2023-04-24T12:02:22;3.37;;;2.70;;
12222;SDS011;6174;49.058;8.524;2023-04-24T12:04:50;2.50;;;2.30;;
12222;SDS011;6174;49.058;8.524;2023-04-24T12:07:17;3.73;;;2.60;;
12222;SDS011;6174;49.058;8.524;2023-04-24T12:09:45;2.57;;;2.30;;
12222;SDS011;6174;49.058;8.524;2023-04-24T12:12:12;3.47;;;2.73;;
12222;SDS011;6174;49.058;8.524;2023-04-24T12:14:44;3.43;;;3.13;;
12222;SDS011;6174;49.058;8.524;2023-04-24T12:17:13;3.50;;;3.20;;
12222;SDS011;6174;49.058;8.524;2023-04-24T12:19:44;2.90;;;2.70;;
12222;SDS011;6174;49.058;8.524;2023-04-24T12:22:14;3.20;;;3.00;;
12222;SDS011;6174;49.058;8.524;2023-04-24T12:24:56;3.43;;;3.10;;
12222;SDS011;6174;49.058;8.524;2023-04-24T12:27:25;3.27;;;2.97;;
12222;SDS011;6174;49.058;8.524;2023-04-24T12:29:52;3.70;;;3.40;;
12222;SDS011;6174;49.058;8.524;2023-04-24T12:32:19;4.63;;;3.47;;
12222;SDS011;6174;49.058;8.524;2023-04-24T12:34:46;3.43;;;3.13;;
12222;SDS011;6174;49.058;8.524;2023-04-24T12:37:14;3.50;;;3.20;;
12222;SDS011;6174;49.058;8.524;2023-04-24T12:39:44;2.70;;;2.50;;
12222;SDS011;6174;49.058;8.524;2023-04-24T12:42:25;3.60;;;3.13;;
12222;SDS011;6174;49.058;8.524;2023-04-24T12:44:55;3.13;;;2.80;;
12222;SDS011;6174;49.058;8.524;2023-04-24T12:47:23;2.63;;;2.13;;
12222;SDS011;6174;49.058;8.524;2023-04-24T12:49:49;3.20;;;2.90;;
12222;SDS011;6174;49.058;8.524;2023-04-24T12:52:18;3.10;;;2.77;;
12222;SDS011;6174;49.058;8.524;2023-04-24T12:54:46;2.90;;;2.63;;
12222;SDS011;6174;49.058;8.524;2023-04-24T12:57:13;3.47;;;3.13;;
12222;SDS011;6174;49.058;8.524;2023-04-24T12:59:40;3.40;;;3.20;;
12222;SDS011;6174;49.058;8.524;2023-04-24T13:02:07;3.17;;;2.87;;
12222;SDS011;6174;49.058;8.524;2023-04-24T13:04:35;3.10;;;2.80;;
12222;SDS011;6174;49.058;8.524;2023-04-24T13:07:02;3.33;;;2.90;;
12222;SDS011;6174;49.058;8.524;2023-04-24T13:09:30;3.43;;;3.13;;
12222;SDS011;6174;49.058;8.524;2023-04-24T13:11:57;2.83;;;2.63;;
12222;SDS011;6174;49.058;8.524;2023-04-24T13:14:23;3.07;;;2.80;;
12222;SDS011;6174;49.058;8.524;2023-04-24T13:16:50;4.07;;;3.13;;
12222;SDS011;6174;49.058;8.524;2023-04-24T13:19:17;3.13;;;2.80;;
12222;SDS011;6174;49.058;8.524;2023-04-24T13:21:44;2.60;;;2.37;;
12222;SDS011;6174;49.058;8.524;2023-04-24T13:24:11;2.97;;;2.50;;
12222;SDS011;6174;49.058;8.524;2023-04-24T13:26:39;3.00;;;2.13;;
12222;SDS011;6174;49.058;8.524;2023-04-24T13:29:06;2.50;;;2.30;;
12222;SDS011;6174;49.058;8.524;2023-04-24T13:31:33;3.87;;;2.50;;
12222;SDS011;6174;49.058;8.524;2023-04-24T13:34:00;2.43;;;2.23;;
12222;SDS011;6174;49.058;8.524;2023-04-24T13:36:27;5.83;;;2.70;;
12222;SDS011;6174;49.058;8.524;2023-04-24T13:38:53;4.67;;;2.73;;
12222;SDS011;6174;49.058;8.524;2023-04-24T13:41:20;2.90;;;2.60;;
12222;SDS011;6174;49.058;8.524;2023-04-24T13:43:48;3.07;;;2.87;;
12222;SDS011;6174;49.058;8.524;2023-04-24T13:46:15;2.83;;;2.60;;
12222;SDS011;6174;49.058;8.524;2023-04-24T13:48:42;3.47;;;2.70;;
12222;SDS011;6174;49.058;8.524;2023-04-24T13:51:08;3.30;;;3.00;;
12222;SDS011;6174;49.058;8.524;2023-04-24T13:53:35;3.20;;;2.90;;
12222;SDS011;6174;49.058;8.524;2023-04-24T13:56:03;3.27;;;2.97;;
12222;SDS011;6174;49.058;8.524;2023-04-24T13:58:30;3.20;;;2.90;;
12222;SDS011;6174;49.058;8.524;2023-04-24T14:00:59;2.70;;;2.50;;
12222;SDS011;6174;49.058;8.524;2023-04-24T14:03:25;3.23;;;2.67;;
12222;SDS011;6174;49.058;8.524;2023-04-24T14:05:52;2.90;;;2.60;;
12222;SDS011;6174;49.058;8.524;2023-04-24T14:08:19;4.53;;;2.87;;
12222;SDS011;6174;49.058;8.524;2023-04-24T14:10:45;3.33;;;3.00;;
12222;SDS011;6174;49.058;8.524;2023-04-24T14:13:12;2.87;;;2.40;;
12222;SDS011;6174;49.058;8.524;2023-04-24T14:15:39;3.13;;;2.83;;
12222;SDS011;6174;49.058;8.524;2023-04-24T14:18:07;3.50;;;2.70;;
12222;SDS011;6174;49.058;8.524;2023-04-24T14:20:34;2.83;;;2.63;;
12222;SDS011;6174;49.058;8.524;2023-04-24T14:23:01;3.03;;;2.70;;
12222;SDS011;6174;49.058;8.524;2023-04-24T14:25:28;2.70;;;2.50;;
12222;SDS011;6174;49.058;8.524;2023-04-24T14:27:56;2.67;;;2.30;;
12222;SDS011;6174;49.058;8.524;2023-04-24T14:30:22;2.20;;;2.00;;
12222;SDS011;6174;49.058;8.524;2023-04-24T14:32:49;2.57;;;2.37;;
12222;SDS011;6174;49.058;8.524;2023-04-24T14:35:17;2.50;;;2.30;;
12222;SDS011;6174;49.058;8.524;2023-04-24T14:37:44;2.40;;;2.20;;
12222;SDS011;6174;49.058;8.524;2023-04-24T14:40:11;2.37;;;2.07;;
12222;SDS011;6174;49.058;8.524;2023-04-24T14:42:37;2.67;;;2.30;;
12222;SDS011;6174;49.058;8.524;2023-04-24T14:45:04;3.57;;;2.30;;
12222;SDS011;6174;49.058;8.524;2023-04-24T14:47:32;2.70;;;2.50;;
12222;SDS011;6174;49.058;8.524;2023-04-24T14:49:59;2.60;;;2.40;;
12222;SDS011;6174;49.058;8.524;2023-04-24T14:52:27;4.57;;;2.63;;
12222;SDS011;6174;49.058;8.524;2023-04-24T14:54:54;3.20;;;2.27;;
12222;SDS011;6174;49.058;8.524;2023-04-24T14:57:21;2.63;;;2.13;;
12222;SDS011;6174;49.058;8.524;2023-04-24T14:59:48;2.20;;;2.00;;
12222;SDS011;6174;49.058;8.524;2023-04-24T15:02:15;2.00;;;1.90;;
12222;SDS011;6174;49.058;8.524;2023-04-24T15:04:41;2.40;;;2.23;;
12222;SDS011;6174;49.058;8.524;2023-04-24T15:07:08;2.60;;;2.40;;
12222;SDS011;6174;49.058;8.524;2023-04-24T15:09:36;2.30;;;2.10;;
12222;SDS011;6174;49.058;8.524;2023-04-24T15:12:03;2.07;;;1.97;;
12222;SDS011;6174;49.058;8.524;2023-04-24T15:14:30;2.00;;;1.90;;
12222;SDS011;6174;49.058;8.524;2023-04-24T15:16:57;2.30;;;1.70;;
12222;SDS011;6174;49.058;8.524;2023-04-24T15:19:23;2.87;;;1.93;;
12222;SDS011;6174;49.058;8.524;2023-04-24T15:21:50;1.90;;;1.80;;
12222;SDS011;6174;49.058;8.524;2023-04-24T15:24:17;2.20;;;2.07;;
12222;SDS011;6174;49.058;8.524;2023-04-24T15:26:45;2.13;;;1.90;;
12222;SDS011;6174;49.058;8.524;2023-04-24T15:29:12;2.17;;;1.97;;
12222;SDS011;6174;49.058;8.524;2023-04-24T15:31:38;1.80;;;1.70;;
12222;SDS011;6174;49.058;8.524;2023-04-24T15:34:05;1.80;;;1.70;;
12222;SDS011;6174;49.058;8.524;2023-04-24T15:36:32;2.67;;;2.17;;
12222;SDS011;6174;49.058;8.524;2023-04-24T15:38:59;3.63;;;1.93;;
12222;SDS011;6174;49.058;8.524;2023-04-24T15:41:27;2.33;;;2.00;;
12222;SDS011;6174;49.058;8.524;2023-04-24T15:43:55;1.90;;;1.80;;
12222;SDS011;6174;49.058;8.524;2023-04-24T15:46:22;2.23;;;2.03;;
12222;SDS011;6174;49.058;8.524;2023-04-24T15:48:49;1.60;;;1.50;;
12222;SDS011;6174;49.058;8.524;2023-04-24T15:51:15;2.20;;;1.97;;
12222;SDS011;6174;49.058;8.524;2023-04-24T15:53:42;2.40;;;1.70;;
12222;SDS011;6174;49.058;8.524;2023-04-24T15:56:10;2.23;;;1.80;;
12222;SDS011;6174;49.058;8.524;2023-04-24T15:58:37;1.80;;;1.70;;
12222;SDS011;6174;49.058;8.524;2023-04-24T16:01:05;1.83;;;1.73;;
12222;SDS011;6174;49.058;8.524;2023-04-24T16:03:32;2.10;;;1.90;;
12222;SDS011;6174;49.058;8.524;2023-04-24T16:05:59;1.90;;;1.80;;
12222;SDS011;6174;49.058;8.524;2023-04-24T16:08:26;3.10;;;1.90;;
12222;SDS011;6174;49.058;8.524;2023-04-24T16:10:52;2.60;;;1.77;;
12222;SDS011;6174;49.058;8.524;2023-04-24T16:13:19;2.20;;;2.00;;
12222;SDS011;6174;49.058;8.524;2023-04-24T16:15:46;2.43;;;2.23;;
12222;SDS011;6174;49.058;8.524;2023-04-24T16:18:14;2.60;;;2.40;;
12222;SDS011;6174;49.058;8.524;2023-04-24T16:20:41;2.07;;;1.97;;
12222;SDS011;6174;49.058;8.524;2023-04-24T16:23:08;2.50;;;2.30;;
12222;SDS011;6174;49.058;8.524;2023-04-24T16:25:35;2.40;;;2.20;;
12222;SDS011;6174;49.058;8.524;2023-04-24T16:28:02;2.17;;;2.07;;
12222;SDS011;6174;49.058;8.524;2023-04-24T16:30:28;3.83;;;2.30;;
12222;SDS011;6174;49.058;8.524;2023-04-24T16:32:55;3.83;;;2.47;;
12222;SDS011;6174;49.058;8.524;2023-04-24T16:35:23;2.00;;;1.90;;
12222;SDS011;6174;49.058;8.524;2023-04-24T16:37:50;2.47;;;2.07;;
12222;SDS011;6174;49.058;8.524;2023-04-24T16:40:17;2.00;;;1.90;;
12222;SDS011;6174;49.058;8.524;2023-04-24T16:42:44;2.33;;;1.80;;
12222;SDS011;6174;49.058;8.524;2023-04-24T16:45:12;2.27;;;1.90;;
12222;SDS011;6174;49.058;8.524;2023-04-24T16:47:39;2.17;;;2.00;;
12222;SDS011;6174;49.058;8.524;2023-04-24T16:50:06;2.00;;;1.80;;
12222;SDS011;6174;49.058;8.524;2023-04-24T16:52:35;1.93;;;1.80;;
12222;SDS011;6174;49.058;8.524;2023-04-24T16:55:02;1.80;;;1.70;;
12222;SDS011;6174;49.058;8.524;2023-04-24T16:57:28;2.47;;;1.90;;
12222;SDS011;6174;49.058;8.524;2023-04-24T16:59:55;2.73;;;2.10;;
12222;SDS011;6174;49.058;8.524;2023-04-24T17:02:22;2.53;;;2.17;;
12222;SDS011;6174;49.058;8.524;2023-04-24T17:04:49;3.13;;;2.03;;
12222;SDS011;6174;49.058;8.524;2023-04-24T17:07:15;2.80;;;2.30;;
12222;SDS011;6174;49.058;8.524;2023-04-24T17:09:44;2.47;;;2.30;;
12222;SDS011;6174;49.058;8.524;2023-04-24T17:12:10;2.70;;;2.50;;
12222;SDS011;6174;49.058;8.524;2023-04-24T17:14:37;2.87;;;2.30;;
12222;SDS011;6174;49.058;8.524;2023-04-24T17:17:04;2.30;;;2.20;;
12222;SDS011;6174;49.058;8.524;2023-04-24T17:19:30;3.00;;;2.80;;
12222;SDS011;6174;49.058;8.524;2023-04-24T17:21:57;2.70;;;2.50;;
12222;SDS011;6174;49.058;8.524;2023-04-24T17:24:24;3.20;;;2.90;;
12222;SDS011;6174;49.058;8.524;2023-04-24T17:26:52;2.90;;;2.57;;
12222;SDS011;6174;49.058;8.524;2023-04-24T17:29:19;2.57;;;2.37;;
12222;SDS011;6174;49.058;8.524;2023-04-24T17:31:47;2.70;;;2.50;;
12222;SDS011;6174;49.058;8.524;2023-04-24T17:34:13;3.20;;;2.93;;
12222;SDS011;6174;49.058;8.524;2023-04-24T17:36:40;3.60;;;3.30;;
12222;SDS011;6174;49.058;8.524;2023-04-24T17:39:07;3.17;;;2.87;;
12222;SDS011;6174;49.058;8.524;2023-04-24T17:41:34;3.00;;;2.80;;
12222;SDS011;6174;49.058;8.524;2023-04-24T17:44:02;3.37;;;3.07;;
12222;SDS011;6174;49.058;8.524;2023-04-24T17:46:30;3.10;;;2.80;;
12222;SDS011;6174;49.058;8.524;2023-04-24T17:48:57;2.90;;;2.70;;
12222;SDS011;6174;49.058;8.524;2023-04-24T17:51:23;3.30;;;3.00;;
12222;SDS011;6174;49.058;8.524;2023-04-24T17:53:51;3.47;;;2.90;;
12222;SDS011;6174;49.058;8.524;2023-04-24T17:56:18;3.77;;;3.10;;
12222;SDS011;6174;49.058;8.524;2023-04-24T17:58:45;3.97;;;3.10;;
12222;SDS011;6174;49.058;8.524;2023-04-24T18:01:14;4.60;;;4.20;;
12222;SDS011;6174;49.058;8.524;2023-04-24T18:03:40;3.60;;;3.30;;
12222;SDS011;6174;49.058;8.524;2023-04-24T18:06:08;3.67;;;3.37;;
12222;SDS011;6174;49.058;8.524;2023-04-24T18:08:35;3.30;;;3.00;;
12222;SDS011;6174;49.058;8.524;2023-04-24T18:11:01;4.30;;;3.70;;
12222;SDS011;6174;49.058;8.524;2023-04-24T18:13:28;6.13;;;5.63;;
12222;SDS011;6174;49.058;8.524;2023-04-24T18:15:55;5.47;;;4.97;;
12222;SDS011;6174;49.058;8.524;2023-04-24T18:18:23;5.60;;;5.10;;
12222;SDS011;6174;49.058;8.524;2023-04-24T18:20:50;5.03;;;4.60;;
12222;SDS011;6174;49.058;8.524;2023-04-24T18:23:17;6.23;;;5.63;;
12222;SDS011;6174;49.058;8.524;2023-04-24T18:25:43;5.70;;;5.03;;
12222;SDS011;6174;49.058;8.524;2023-04-24T18:28:10;4.37;;;4.07;;
12222;SDS011;6174;49.058;8.524;2023-04-24T18:30:37;5.67;;;5.17;;
12222;SDS011;6174;49.058;8.524;2023-04-24T18:33:04;5.73;;;5.23;;
12222;SDS011;6174;49.058;8.524;2023-04-24T18:35:32;5.90;;;5.40;;
12222;SDS011;6174;49.058;8.524;2023-04-24T18:37:59;8.43;;;7.10;;
12222;SDS011;6174;49.058;8.524;2023-04-24T18:40:26;7.10;;;6.43;;
12222;SDS011;6174;49.058;8.524;2023-04-24T18:42:52;6.10;;;5.60;;
12222;SDS011;6174;49.058;8.524;2023-04-24T18:45:21;5.73;;;5.23;;
12222;SDS011;6174;49.058;8.524;2023-04-24T18:47:48;6.43;;;5.70;;
12222;SDS011;6174;49.058;8.524;2023-04-24T18:50:15;5.13;;;4.73;;
12222;SDS011;6174;49.058;8.524;2023-04-24T18:52:44;4.53;;;4.23;;
12222;SDS011;6174;49.058;8.524;2023-04-24T18:55:11;4.10;;;3.80;;
12222;SDS011;6174;49.058;8.524;2023-04-24T18:57:38;4.40;;;4.07;;
12222;SDS011;6174;49.058;8.524;2023-04-24T19:00:05;4.80;;;4.40;;
12222;SDS011;6174;49.058;8.524;2023-04-24T19:02:32;4.43;;;4.10;;
12222;SDS011;6174;49.058;8.524;2023-04-24T19:04:59;4.17;;;3.77;;
12222;SDS011;6174;49.058;8.524;2023-04-24T19:07:26;4.47;;;4.07;;
12222;SDS011;6174;49.058;8.524;2023-04-24T19:09:55;4.93;;;4.47;;
12222;SDS011;6174;49.058;8.524;2023-04-24T19:12:22;5.67;;;4.90;;
12222;SDS011;6174;49.058;8.524;2023-04-24T19:14:48;5.70;;;5.20;;
12222;SDS011;6174;49.058;8.524;2023-04-24T19:17:19;5.53;;;5.13;;
12222;SDS011;6174;49.058;8.524;2023-04-24T19:19:48;5.30;;;4.90;;
12222;SDS011;6174;49.058;8.524;2023-04-24T19:22:16;5.20;;;4.70;;
12222;SDS011;6174;49.058;8.524;2023-04-24T19:24:43;5.70;;;5.10;;
12222;SDS011;6174;49.058;8.524;2023-04-24T19:27:12;5.10;;;4.70;;
12222;SDS011;6174;49.058;8.524;2023-04-24T19:29:38;5.10;;;4.70;;
12222;SDS011;6174;49.058;8.524;2023-04-24T19:32:06;4.90;;;4.40;;
12222;SDS011;6174;49.058;8.524;2023-04-24T19:34:33;5.90;;;5.40;;
12222;SDS011;6174;49.058;8.524;2023-04-24T19:37:00;4.73;;;4.23;;
12222;SDS011;6174;49.058;8.524;2023-04-24T19:39:27;4.23;;;3.93;;
12222;SDS011;6174;49.058;8.524;2023-04-24T19:41:56;4.60;;;4.30;;
12222;SDS011;6174;49.058;8.524;2023-04-24T19:44:25;4.00;;;3.70;;
12222;SDS011;6174;49.058;8.524;2023-04-24T19:46:52;4.17;;;3.87;;
12222;SDS011;6174;49.058;8.524;2023-04-24T19:49:19;4.20;;;3.83;;
12222;SDS011;6174;49.058;8.524;2023-04-24T19:51:45;4.20;;;3.90;;
12222;SDS011;6174;49.058;8.524;2023-04-24T19:54:13;4.10;;;3.70;;
12222;SDS011;6174;49.058;8.524;2023-04-24T19:56:39;4.20;;;3.90;;
12222;SDS011;6174;49.058;8.524;2023-04-24T19:59:06;4.20;;;3.90;;
12222;SDS011;6174;49.058;8.524;2023-04-24T20:01:34;4.47;;;4.07;;
12222;SDS011;6174;49.058;8.524;2023-04-24T20:04:03;4.10;;;3.80;;
12222;SDS011;6174;49.058;8.524;2023-04-24T20:06:31;4.27;;;3.97;;